Airfield :
LOGIN :

Register | Disclaimer

   EN    FR    IT 

 










Legend :    VFR   Marginal VFR   IFR   Intensive IFR   Very Intensive IFR
Visi :
Ceiling :
>= 8 km
>= 3000ft
5 to 8 km
1000 to 3000 ft
1500m to 5 km
500 to 1000 ft
800 to 1500m
200 to 500 ft
< 800m
< 200 ft
Symbols :   Thunderstorms  Fog  Heavy snow  Heavy precipitations  Wind > 20 kt
SIGMETs :     Misc.  Thunderstorms  Icing  Turbulence  Mountain Waves  Volcanic Ashes






- Airport Elevation : 270 ft
- IATA code : OXF


EGTK - Oxford (Kidlington)

CURRENT METAR :
  • 230820Z 22006KT 180V240 9999 SCT032 13/11 Q1006

EXPIRED METARs :
  • 230750Z 22005KT 9999 FEW013 11/11 Q1006
  • 230720Z 21008KT 9999 SCT012 11/10 Q1006
  • 230620Z 21007KT 9999 SCT013 11/10 Q1006
  • 230550Z 23007KT 9999 SCT013 11/11 Q1006
  • 230520Z 22009KT 9999 FEW010 BKN013 12/12 Q1006

TAF TAF EGTK
Valid from the 23 at 06:00 until the 23 at 15:00 UTC


230530Z 2306/2315 22010KT 9999 FEW015
PROB40
TEMPO 2306/2309 BKN012
TEMPO 2311/2315 6000 RA BKN012



MET'MAP, your aeronautical weather chart ! - Copyright ORBIFLY December 2007 - Disclaimer

ORBIFLY MET'MAP TEAM :

Programming & Development : Alexandra Zaïnal
Concept & original design : Baudouin d'Aumeries
Assistance for programming : Marc-Olivier Méhu
Technical & hardware support : Manuel Goepfert

Contact : metmap@orbifly.com




SOURCES & CREDITS :

   NOAA